LFPT METAR and TAF | Updated Today

LFPT METAR

Pontoise - Cormeilles-en-Vexin Airport

Observation time: 3 min. ago

LFPT 010830Z AUTO 26009KT CAVOK 16/12 Q1010

Need help? Read our tutorial on how to read METARs or read the parsed version below.

Pontoise - Cormeilles-en-Vexin Airport (LFPT) METAR

  • Weather conditions on Sat, 01 Oct 2022 08:30:00 +0000 (3 min. ago):
  • Present conditions: Dry
  • Clouds: Clear skies
  • Visibility: Greater than 10 km
  • Wind: 260 degrees at 9 knots
  • Temperature: 16 celsius
  • Dew point: 12 celsius
  • Pressure: 1010 millibars
  • Remarks: None


Useful to know...